Pringle, SD (57773)

9:16 AM MDT on August 29, 2015 (GMT -0600)
Hay Creek Road | | Change Station
CLOSE
Current Station
Personal Weather Station
Location: Custer, SD
Elevation: 5325 ft
Nearby Weather Stations

Elev 5325 ft 43.70 °N, 103.67 °W | Updated 9 seconds ago

Clear
Clear
67.6 °F
Feels Like 67.6 °F
N
0.0
Wind Variable Wind from South
Gusts 0.0 mph

Today
High -- | Low -- °F
--% Chance of Precip.
Yesterday
High -- | Low -- °F
Precip. -- in
6:14 AM 7:35 PM
Full, 100% visible
Pressure 30.04 in
Visibility 8.0 miles
Clouds Clear
Dew Point 50 °F
Humidity 54%
Rainfall 0.00 in
Snow Depth Not available.
UV 2.0 out of 12
Pollen 10.70 out of 12
Air Quality Not available.
Flu Activity Not available.
METAR KCUT 291453Z AUTO 28005KT 8SM CLR 22/08 A3023 RMK AO2 SLP173 T02220078 50004
Pressure 30.04 in
Visibility 8.0 miles
Clouds Clear
Dew Point 50 °F
Humidity 54%
Rainfall 0.00 in
Snow Depth Not available.
UV 2.0 out of 12
Pollen 10.70 out of 12
Air Quality Not available.
Flu Activity Not available.
METAR KCUT 291453Z AUTO 28005KT 8SM CLR 22/08 A3023 RMK AO2 SLP173 T02220078 50004

10-Day Weather Forecast

×

Almanac

Astronomy

Aug. 29, 2015 Rise Set
Actual Time
Civil Twilight
Nautical Twilight
Astronomical Twilight
Moon
Length of Visible Light
Length of Day
Tomorrow will be .
, % of the Moon is Illuminated

Today's Extremes

State Highs State Lows

Community

WunderPhotos

Upload Photos

1,850,694 photos uploaded!

WunderBlogs® & News

Nearby

Air Quality

  Air Quality AQ Index Pollutant
Not available.

Snow Depth

Station Depth Elevation

Earthquake Activity

City Distance Mag. Time & Date
Minimum magnitude displayed is 2.5.

Coastal Water Temperatures

Place Temperature

Stations

Nearby Weather Stations

Station Location Temp. Windchill Dew Point Humidity Wind Precip. Elev Updated Type